Terminal Aerodrome Forecast
Issued by NWS

Home | Current Version | Previous Version | Text Only | Print | Product List | Glossary On
Versions: 1 2 3 4 5 6 7 8 9 10 11 12
000
FTUS42 KTBW 202331
TAFPIE
TAF
KPIE 202331Z 2100/2124 03005KT P6SM BKN040 OVC120
     FM210200 07005KT P6SM FEW040 BKN120
     FM211500 09008KT P6SM FEW030 SCT120
     FM211900 12006KT P6SM SCT045 SCT100=

USA.gov is the U.S. government's official web portal to all federal, state and local government web resources and services.